Oceanside, Oregon
Current Conditions -  °F | °C
As of 5:55 AM on Monday 22 Dec 2014 (Local Time) from KTMK Reporting Station
Overcast Overcast  
Wind Chill: 50°   Ceiling: 1500
Heat Index: 50°   Visibility: 7mi
Dew Point: 50°   Wind: 3mph
Humidity: 100%   Direction: 160°SSE
Pressure: 30.31"   Gusts: NA
Location:  45.46°N, 123.97°W
Report Text: KTMK 221355Z AUTO 16003KT 7SM SCT007 BKN015 OVC039 10/10 A3031 RMK AO2
Loading
Personal Weather Stations






























Interactive Weather Map New forecast layout! Learn more

10-Day Weather Forecast

Advertisements
Track Severe Weather on mobile